Time;durP1;ratioP1;P1;durP2;ratioP2;P2;SDS_P1;SDS_P2;PMS_P1;PMS_P2;Temp;Humidity;BMP_temperature;BMP_pressure;BME280_temperature;BME280_humidity;BME280_pressure;Samples;Min_cycle;Max_cycle;Signal;HPM_P1;HPM_P2
2023/07/04 00:00:38;;;;;;;6.95;2.65;;;;;;;15.95;51.76;99776.22;10463585;28;20111;-74
2023/07/04 00:05:48;;;;;;;9.18;2.53;;;;;;;15.81;52.27;99758.81;10460429;28;20048;-74
2023/07/04 00:10:51;;;;;;;11.35;2.85;;;;;;;16.05;52.14;99766.03;10461648;28;20044;-74
2023/07/04 00:15:56;;;;;;;7.40;2.38;;;;;;;15.83;52.02;99772.22;10456350;28;20060;-75
2023/07/04 00:21:05;;;;;;;9.48;2.38;;;;;;;15.88;52.50;99777.94;10455764;28;20047;-74
2023/07/04 00:26:08;;;;;;;2.17;1.10;;;;;;;15.50;53.04;99772.28;10461813;28;20064;-75
2023/07/04 00:31:14;;;;;;;10.13;2.03;;;;;;;15.59;52.57;99783.94;10457516;28;20037;-75
2023/07/04 00:36:19;;;;;;;11.95;3.05;;;;;;;16.00;56.45;99798.22;10453598;28;20086;-74
2023/07/04 00:41:24;;;;;;;10.38;3.13;;;;;;;15.56;59.27;99812.19;10461198;28;20033;-74
2023/07/04 00:46:39;;;;;;;7.97;3.20;;;;;;;15.01;64.88;99854.22;10451915;28;20045;-74
2023/07/04 00:51:48;;;;;;;13.50;3.38;;;;;;;13.59;74.15;99866.50;10460018;28;20128;-75
2023/07/04 00:56:54;;;;;;;9.38;4.20;;;;;;;13.28;76.65;99870.41;10457807;28;20051;-74
2023/07/04 01:01:59;;;;;;;6.75;2.03;;;;;;;13.02;75.68;99867.63;10447396;28;20070;-75
2023/07/04 01:07:15;;;;;;;4.90;1.75;;;;;;;12.91;76.19;99857.06;10455489;28;20094;-74
2023/07/04 01:12:18;;;;;;;5.82;2.05;;;;;;;12.64;77.83;99852.53;10447326;28;20082;-74
2023/07/04 01:17:21;;;;;;;4.45;1.63;;;;;;;12.55;78.83;99856.16;10471024;28;20044;-74
2023/07/04 01:22:34;;;;;;;5.85;1.85;;;;;;;12.29;80.25;99851.47;10456379;28;20033;-74
2023/07/04 01:27:42;;;;;;;4.57;1.67;;;;;;;12.59;78.71;99858.41;10456449;28;20041;-74
2023/07/04 01:32:51;;;;;;;5.97;1.33;;;;;;;12.45;77.54;99850.81;10455695;28;20048;-74
2023/07/04 01:37:56;;;;;;;4.70;1.13;;;;;;;12.47;74.26;99856.88;10450749;28;20033;-74
2023/07/04 01:43:00;;;;;;;4.22;1.30;;;;;;;12.83;73.45;99859.66;10458661;28;20120;-74
2023/07/04 01:48:03;;;;;;;3.15;0.90;;;;;;;12.91;70.68;99857.06;10460337;28;20052;-74
2023/07/04 01:53:06;;;;;;;18.77;1.50;;;;;;;12.92;69.69;99858.78;10451545;28;20064;-75
2023/07/04 01:58:11;;;;;;;2.45;0.73;;;;;;;12.82;68.89;99869.59;10466441;28;20045;-75
2023/07/04 02:03:14;;;;;;;1.38;0.70;;;;;;;12.84;68.35;99872.16;10468708;28;20117;-75
2023/07/04 02:08:17;;;;;;;4.45;1.02;;;;;;;12.39;71.07;99867.56;10461869;28;20052;-74
2023/07/04 02:13:21;;;;;;;1.30;1.00;;;;;;;12.17;75.29;99884.91;10464780;28;20079;-74
2023/07/04 02:18:25;;;;;;;2.25;1.23;;;;;;;12.05;76.90;99865.41;10460451;28;20071;-74
2023/07/04 02:23:28;;;;;;;7.20;1.52;;;;;;;11.91;78.16;99873.94;10470517;28;20048;-74
2023/07/04 02:28:32;;;;;;;3.67;1.50;;;;;;;11.70;79.78;99868.75;10466445;28;20489;-74
2023/07/04 02:33:35;;;;;;;3.72;1.00;;;;;;;11.51;79.54;99885.75;10449880;28;20090;-74
2023/07/04 02:38:39;;;;;;;3.75;1.23;;;;;;;11.23;80.92;99887.44;10462186;28;20119;-74
2023/07/04 02:43:45;;;;;;;6.32;1.52;;;;;;;11.53;79.54;99882.94;10455247;28;20047;-75
2023/07/04 02:48:48;;;;;;;2.15;1.13;;;;;;;11.65;78.07;99866.47;10470728;28;20503;-73
2023/07/04 02:53:51;;;;;;;3.50;1.95;;;;;;;11.42;77.03;99871.31;10472988;28;20052;-73
2023/07/04 02:58:55;;;;;;;4.88;1.40;;;;;;;11.77;75.82;99871.72;10453406;28;20055;-73
2023/07/04 03:03:59;;;;;;;3.83;1.20;;;;;;;11.70;74.60;99863.34;10460877;28;20452;-73
2023/07/04 03:09:03;;;;;;;2.67;1.35;;;;;;;11.89;73.65;99857.94;10455629;28;20042;-73
2023/07/04 03:14:08;;;;;;;3.17;1.20;;;;;;;12.09;72.85;99865.94;10454316;28;20057;-73
2023/07/04 03:19:11;;;;;;;4.93;1.20;;;;;;;12.28;72.18;99868.59;10460072;28;20051;-73
2023/07/04 03:24:14;;;;;;;6.72;1.27;;;;;;;12.12;71.83;99887.19;10460638;28;20056;-73
2023/07/04 03:29:18;;;;;;;4.95;1.10;;;;;;;12.29;71.50;99875.69;10449079;28;20055;-74
2023/07/04 03:34:22;;;;;;;2.15;0.98;;;;;;;12.32;71.51;99896.09;10460553;28;20440;-73
2023/07/04 03:39:25;;;;;;;3.45;1.10;;;;;;;12.12;71.66;99897.94;10456668;28;20127;-73
2023/07/04 03:44:31;;;;;;;6.15;1.50;;;;;;;12.45;71.10;99887.66;10479835;28;20049;-73
2023/07/04 03:49:34;;;;;;;6.30;1.58;;;;;;;12.31;71.86;99891.69;10458020;28;20044;-74
2023/07/04 03:54:37;;;;;;;3.80;1.67;;;;;;;12.46;71.57;99889.38;10469483;28;20056;-73
2023/07/04 03:59:42;;;;;;;6.70;3.00;;;;;;;12.33;72.16;99905.88;10461339;28;20049;-74
2023/07/04 04:04:44;;;;;;;1.55;1.05;;;;;;;12.58;71.35;99891.72;10463929;28;20052;-74
2023/07/04 04:09:48;;;;;;;3.47;1.92;;;;;;;12.56;71.74;99901.81;10456087;28;20064;-73
2023/07/04 04:14:52;;;;;;;4.68;2.05;;;;;;;12.57;71.97;99881.94;10454307;28;20102;-74
2023/07/04 04:19:55;;;;;;;6.63;2.70;;;;;;;12.69;72.06;99889.81;10469980;28;20606;-74
2023/07/04 04:24:58;;;;;;;5.18;2.00;;;;;;;12.63;72.39;99885.03;10468387;28;20106;-74
2023/07/04 04:30:05;;;;;;;6.68;1.77;;;;;;;12.59;72.42;99896.13;10464117;28;20044;-74
2023/07/04 04:35:10;;;;;;;4.22;2.20;;;;;;;12.94;71.77;99907.13;10442507;28;20037;-74
2023/07/04 04:40:12;;;;;;;9.05;2.60;;;;;;;12.57;72.74;99924.22;10458252;28;20048;-73
2023/07/04 04:45:17;;;;;;;3.08;1.80;;;;;;;12.65;72.54;99918.09;10458948;28;20064;-73
2023/07/04 04:50:20;;;;;;;4.15;2.05;;;;;;;12.61;72.25;99920.19;10449851;28;20038;-73
2023/07/04 04:55:24;;;;;;;8.02;2.88;;;;;;;12.96;71.46;99907.81;10445040;28;20511;-74
2023/07/04 05:00:29;;;;;;;7.10;2.70;;;;;;;13.21;70.64;99923.25;10468637;28;20041;-74
2023/07/04 05:05:32;;;;;;;5.32;2.10;;;;;;;12.89;71.36;99929.16;10458879;28;20041;-74
2023/07/04 05:10:35;;;;;;;4.55;2.28;;;;;;;13.03;70.35;99931.34;10458157;28;20048;-74
2023/07/04 05:15:40;;;;;;;5.88;2.10;;;;;;;13.02;70.71;99934.19;10459632;28;20040;-74
2023/07/04 05:20:42;;;;;;;8.50;1.90;;;;;;;12.90;70.69;99938.09;10466108;28;20812;-74
2023/07/04 05:25:45;;;;;;;6.00;2.22;;;;;;;13.25;69.41;99940.00;10458377;28;20393;-74
2023/07/04 05:30:57;;;;;;;5.32;2.45;;;;;;;13.38;69.15;99936.94;10457151;28;20056;-74
2023/07/04 05:36:04;;;;;;;4.37;2.17;;;;;;;13.35;69.03;99940.75;10449613;28;20086;-74
2023/07/04 05:41:09;;;;;;;6.38;2.40;;;;;;;13.71;68.01;99954.28;10462559;28;20037;-74
2023/07/04 05:46:15;;;;;;;5.47;2.10;;;;;;;13.57;68.89;99958.38;10466145;28;20048;-75
2023/07/04 05:51:19;;;;;;;6.85;2.63;;;;;;;13.33;69.27;99956.28;10477208;28;20045;-75
2023/07/04 05:56:25;;;;;;;7.47;2.60;;;;;;;13.58;68.89;99943.91;10478098;28;20061;-75
2023/07/04 06:01:32;;;;;;;4.65;2.35;;;;;;;13.76;68.22;99951.97;10455882;28;20045;-75
2023/07/04 06:06:37;;;;;;;8.23;2.90;;;;;;;13.12;70.83;99966.50;10468179;28;20047;-75
2023/07/04 06:11:45;;;;;;;5.82;3.00;;;;;;;13.48;69.85;99976.34;10469144;28;20035;-76
2023/07/04 06:16:50;;;;;;;5.75;2.83;;;;;;;13.91;69.37;99973.88;10463074;28;20041;-76
2023/07/04 06:21:53;;;;;;;8.98;4.03;;;;;;;14.38;67.31;99976.25;10493229;28;20049;-75
2023/07/04 06:26:56;;;;;;;12.00;4.75;;;;;;;14.12;69.57;99982.50;10479630;28;20120;-76
2023/07/04 06:32:01;;;;;;;11.77;5.10;;;;;;;14.52;68.98;99983.81;10464899;28;20068;-76
2023/07/04 06:37:04;;;;;;;8.80;3.30;;;;;;;14.06;67.35;99990.38;10458398;28;20091;-76
2023/07/04 06:42:07;;;;;;;7.97;3.67;;;;;;;14.04;66.83;100000.47;10465923;28;20041;-75
2023/07/04 06:47:17;;;;;;;11.18;2.70;;;;;;;14.08;66.85;100010.81;10464990;28;20094;-74
2023/07/04 06:52:20;;;;;;;11.27;3.42;;;;;;;14.24;66.07;100004.69;10471922;28;20040;-74
2023/07/04 06:57:23;;;;;;;9.63;3.08;;;;;;;14.45;66.24;100004.34;10464570;28;20042;-75
2023/07/04 07:02:27;;;;;;;8.95;3.50;;;;;;;14.65;65.69;100005.00;10472729;28;20053;-75
2023/07/04 07:07:31;;;;;;;9.95;3.08;;;;;;;14.20;65.81;100016.81;10463547;28;20041;-75
2023/07/04 07:12:33;;;;;;;9.57;2.60;;;;;;;14.44;64.98;100020.72;10457757;28;20048;-75
2023/07/04 07:17:38;;;;;;;10.35;3.63;;;;;;;14.52;65.13;100028.91;10453850;28;20041;-75
2023/07/04 07:22:41;;;;;;;7.82;2.78;;;;;;;14.90;64.95;100035.72;10448525;28;20048;-76
2023/07/04 07:27:44;;;;;;;10.35;3.80;;;;;;;15.61;62.97;100037.22;10450616;28;20041;-75
2023/07/04 07:32:48;;;;;;;7.30;2.80;;;;;;;16.05;61.00;100042.34;10452461;28;20492;-75
2023/07/04 07:37:51;;;;;;;7.65;3.33;;;;;;;17.08;57.87;100021.88;10450961;28;20071;-76
2023/07/04 07:42:54;;;;;;;6.60;2.47;;;;;;;17.82;54.56;100030.50;10458748;28;20053;-75
2023/07/04 07:47:58;;;;;;;10.00;2.70;;;;;;;17.86;54.84;100023.72;10451911;28;20053;-75
2023/07/04 07:53:01;;;;;;;6.13;2.45;;;;;;;17.44;55.62;100025.84;10463087;28;20079;-75
2023/07/04 07:58:04;;;;;;;7.53;2.38;;;;;;;18.40;52.72;100058.13;10457621;28;20115;-75
2023/07/04 08:03:08;;;;;;;9.07;2.45;;;;;;;16.81;55.00;100043.84;10451196;28;20051;-75
2023/07/04 08:08:11;;;;;;;9.25;3.03;;;;;;;17.04;56.11;100045.81;10450993;28;20050;-75
2023/07/04 08:13:14;;;;;;;11.07;3.20;;;;;;;16.79;57.38;100053.19;10454699;28;20036;-75
2023/07/04 08:18:20;;;;;;;9.70;3.28;;;;;;;16.33;57.12;100077.28;10453224;28;20065;-74
2023/07/04 08:23:23;;;;;;;9.95;3.28;;;;;;;15.85;59.20;100066.22;10452400;28;20115;-75
2023/07/04 08:28:27;;;;;;;13.00;4.13;;;;;;;17.03;56.43;100049.53;10450606;28;20406;-75
2023/07/04 08:33:31;;;;;;;12.15;3.97;;;;;;;17.29;54.96;100043.88;10457628;28;20054;-75
2023/07/04 08:38:34;;;;;;;11.52;4.05;;;;;;;16.86;56.20;100048.72;10455956;28;20485;-75
2023/07/04 08:43:46;;;;;;;13.38;4.10;;;;;;;17.70;54.38;100030.09;10455211;28;20052;-75
2023/07/04 08:48:50;;;;;;;14.03;3.80;;;;;;;17.80;53.29;100041.56;10448901;28;20500;-75
2023/07/04 08:53:59;;;;;;;10.18;4.28;;;;;;;17.96;52.36;100031.59;10451318;28;20037;-74
2023/07/04 08:59:11;;;;;;;12.05;3.80;;;;;;;17.27;53.33;100036.94;10457955;28;20044;-75
2023/07/04 09:04:21;;;;;;;15.35;4.13;;;;;;;17.11;53.32;100056.81;10455035;28;20531;-74
2023/07/04 09:09:32;;;;;;;9.13;4.07;;;;;;;17.92;51.34;100052.88;10445917;28;20095;-74
2023/07/04 09:14:42;;;;;;;13.20;4.18;;;;;;;18.40;50.82;100042.63;10452803;28;20350;-74
2023/07/04 09:19:47;;;;;;;11.07;3.38;;;;;;;18.07;49.99;100050.22;10455671;28;20482;-74
2023/07/04 09:24:50;;;;;;;10.38;3.42;;;;;;;18.30;47.82;100055.66;10459634;28;20438;-74
2023/07/04 09:29:53;;;;;;;11.55;3.97;;;;;;;18.13;49.09;100055.81;10448950;28;20519;-75
2023/07/04 09:35:02;;;;;;;12.07;3.50;;;;;;;17.69;51.25;100061.84;10453300;28;20124;-75
2023/07/04 09:40:07;;;;;;;6.65;3.30;;;;;;;17.81;48.61;100056.84;10470069;28;20052;-75
2023/07/04 09:45:13;;;;;;;8.57;3.10;;;;;;;18.49;47.77;100054.31;10465069;28;20071;-75
2023/07/04 09:50:28;;;;;;;10.68;3.45;;;;;;;18.57;47.13;100051.53;10474259;28;20139;-75
2023/07/04 09:55:32;;;;;;;8.93;3.55;;;;;;;18.77;45.02;100059.97;10466564;28;20120;-75
2023/07/04 10:00:35;;;;;;;12.23;3.88;;;;;;;19.27;44.88;100072.03;10480590;28;20553;-76
2023/07/04 10:05:42;;;;;;;7.38;2.97;;;;;;;19.04;45.99;100044.94;10468069;28;20040;-76
2023/07/04 10:10:52;;;;;;;11.02;4.13;;;;;;;19.47;46.76;100053.22;10458692;28;20045;-76
2023/07/04 10:15:56;;;;;;;10.18;3.88;;;;;;;19.23;45.71;100040.78;10472594;28;20072;-76
2023/07/04 10:21:02;;;;;;;8.10;4.25;;;;;;;19.40;46.00;100042.25;10460742;28;20037;-76
2023/07/04 10:26:07;;;;;;;11.25;4.18;;;;;;;20.43;44.73;100031.19;10465198;28;20066;-76
2023/07/04 10:31:14;;;;;;;8.85;3.92;;;;;;;20.05;42.09;100032.31;10461373;28;20056;-76
2023/07/04 10:36:25;;;;;;;9.35;3.42;;;;;;;18.32;45.97;100038.16;10449396;28;20061;-76
2023/07/04 10:41:34;;;;;;;9.02;3.95;;;;;;;19.46;44.35;100033.31;10442493;28;20041;-76
2023/07/04 10:46:46;;;;;;;8.25;3.90;;;;;;;20.41;43.14;100033.31;10461773;28;20040;-76
2023/07/04 10:51:54;;;;;;;7.70;3.65;;;;;;;19.65;42.68;100031.06;10452466;28;20109;-75
2023/07/04 10:57:06;;;;;;;9.45;3.90;;;;;;;19.77;44.26;100037.69;10460604;28;20036;-75
2023/07/04 11:02:14;;;;;;;;;;;;;;;19.44;42.05;100040.00;10460560;28;20443;-76
2023/07/04 11:07:22;;;;;;;6.78;3.28;;;;;;;19.41;42.77;100038.50;10468119;28;19931;-76
2023/07/04 11:12:29;;;;;;;13.00;3.42;;;;;;;19.40;43.58;100064.03;10462343;28;20561;-76
2023/07/04 11:17:34;;;;;;;8.15;2.88;;;;;;;19.10;43.82;100070.56;10456819;28;20514;-75
2023/07/04 11:22:47;;;;;;;6.85;3.20;;;;;;;19.51;43.62;100057.28;10449186;28;20123;-75
2023/07/04 11:28:19;;;;;;;8.18;3.13;;;;;;;19.68;42.64;100047.84;10464391;28;20122;-75
2023/07/04 11:33:40;;;;;;;7.43;2.28;;;;;;;20.32;40.04;100057.13;10455421;28;20116;-75
2023/07/04 11:38:54;;;;;;;4.43;2.67;;;;;;;21.35;39.04;100052.00;10452667;28;20373;-75
2023/07/04 11:44:12;;;;;;;11.10;2.80;;;;;;;20.62;39.74;100063.25;10452391;28;20163;-75
2023/07/04 11:49:19;;;;;;;6.35;2.78;;;;;;;21.04;38.75;100047.00;10450403;28;20045;-75
2023/07/04 11:54:26;;;;;;;5.07;2.35;;;;;;;20.94;39.61;100044.59;10453122;28;20548;-75
2023/07/04 11:59:41;;;;;;;10.30;2.83;;;;;;;21.51;38.82;100053.53;10446603;28;20044;-74
2023/07/04 12:04:47;;;;;;;5.53;2.55;;;;;;;20.04;40.62;100060.59;10456727;28;20044;-75
2023/07/04 12:09:56;;;;;;;10.43;3.85;;;;;;;20.28;40.47;100061.28;10457805;28;20064;-74
2023/07/04 12:15:05;;;;;;;8.15;2.30;;;;;;;19.73;40.97;100082.72;10456542;28;20295;-74
2023/07/04 12:20:11;;;;;;;8.77;1.88;;;;;;;20.19;39.92;100057.84;10461616;28;20048;-75
2023/07/04 12:25:22;;;;;;;7.95;2.05;;;;;;;20.80;39.98;100060.03;10455280;28;20033;-75
2023/07/04 12:30:25;;;;;;;7.60;2.28;;;;;;;20.96;39.73;100076.13;10453718;28;20033;-75
2023/07/04 12:35:41;;;;;;;10.07;2.50;;;;;;;20.55;40.29;100065.09;10461009;28;20055;-74
2023/07/04 12:40:48;;;;;;;9.63;2.88;;;;;;;20.68;39.76;100069.78;10462920;28;20412;-76
2023/07/04 12:45:50;;;;;;;6.15;2.17;;;;;;;20.80;39.31;100068.22;10453342;28;20526;-75
2023/07/04 12:50:56;;;;;;;7.25;2.08;;;;;;;21.58;37.40;100066.16;10448892;28;20044;-75
2023/07/04 12:56:02;;;;;;;6.22;1.95;;;;;;;20.85;38.13;100076.66;10458901;28;20132;-76
2023/07/04 13:01:08;;;;;;;7.97;1.45;;;;;;;21.00;37.93;100065.63;10454210;28;20045;-75
2023/07/04 13:06:19;;;;;;;6.07;1.83;;;;;;;21.62;37.69;100072.91;10461391;28;20041;-75
2023/07/04 13:11:24;;;;;;;5.93;2.10;;;;;;;21.74;37.50;100067.69;10452968;28;20473;-75
2023/07/04 13:16:31;;;;;;;5.28;2.58;;;;;;;21.12;38.04;100055.88;10455379;28;20037;-75
2023/07/04 13:21:37;;;;;;;4.63;2.10;;;;;;;20.25;39.81;100073.41;10468625;28;20047;-75
2023/07/04 13:26:43;;;;;;;4.97;1.98;;;;;;;19.57;40.54;100072.03;10477355;28;20064;-74
2023/07/04 13:31:46;;;;;;;5.28;1.58;;;;;;;19.61;40.96;100076.06;10461245;28;20053;-75
2023/07/04 13:36:54;;;;;;;6.65;2.08;;;;;;;20.97;39.76;100074.22;10457505;28;20068;-75
2023/07/04 13:42:00;;;;;;;8.25;2.25;;;;;;;20.43;39.82;100074.84;10459261;28;20052;-74
2023/07/04 13:47:06;;;;;;;9.68;2.55;;;;;;;19.59;42.17;100095.31;10447396;28;20033;-74
2023/07/04 13:52:09;;;;;;;5.40;2.20;;;;;;;19.72;42.01;100080.16;10453971;28;20033;-74
2023/07/04 13:57:14;;;;;;;10.48;3.20;;;;;;;21.40;40.25;100071.34;10448935;28;20051;-76
2023/07/04 14:02:17;;;;;;;5.40;2.40;;;;;;;22.94;37.14;100062.38;10448317;28;20056;-75
2023/07/04 14:07:23;;;;;;;7.63;2.22;;;;;;;23.42;36.75;100070.25;10466658;28;20032;-76
2023/07/04 14:12:27;;;;;;;10.45;3.05;;;;;;;22.76;37.83;100069.34;10467405;28;20063;-77
2023/07/04 14:17:30;;;;;;;12.02;2.40;;;;;;;21.67;39.09;100069.56;10461333;28;20033;-77
2023/07/04 14:22:53;;;;;;;7.03;2.30;;;;;;;20.51;41.12;100074.72;10462752;28;20045;-76
2023/07/04 14:27:58;;;;;;;9.50;2.83;;;;;;;20.66;41.56;100069.19;10470065;28;20162;-76
2023/07/04 14:33:01;;;;;;;8.27;2.15;;;;;;;20.09;41.33;100055.41;10470014;28;20048;-76
2023/07/04 14:38:04;;;;;;;11.30;2.70;;;;;;;20.89;41.94;100067.03;10462001;28;20041;-76
2023/07/04 14:43:10;;;;;;;6.68;2.60;;;;;;;20.79;41.14;100069.28;10455427;28;20459;-75
2023/07/04 14:48:12;;;;;;;10.52;2.72;;;;;;;20.91;41.45;100056.75;10468297;28;20052;-73
2023/07/04 14:53:16;;;;;;;14.23;3.03;;;;;;;20.87;42.15;100073.72;10466332;28;20048;-76
2023/07/04 14:58:20;;;;;;;8.75;3.17;;;;;;;20.78;41.42;100073.88;10457995;28;20034;-75
2023/07/04 15:03:27;;;;;;;5.28;2.47;;;;;;;20.58;42.28;100072.88;10454003;28;20044;-75
2023/07/04 15:08:31;;;;;;;6.82;3.00;;;;;;;20.58;42.17;100072.06;10467406;28;20057;-75
2023/07/04 15:13:35;;;;;;;7.15;3.00;;;;;;;21.17;41.29;100077.97;10437995;28;20067;-74
2023/07/04 15:18:39;;;;;;;7.50;3.08;;;;;;;23.23;38.04;100074.78;10456134;28;20415;-75
2023/07/04 15:23:42;;;;;;;6.90;3.10;;;;;;;22.68;38.21;100075.03;10453287;28;20048;-75
2023/07/04 15:28:47;;;;;;;6.90;3.08;;;;;;;21.59;39.38;100075.22;10459490;28;20500;-76
2023/07/04 15:33:51;;;;;;;11.45;3.50;;;;;;;21.44;40.21;100062.53;10463785;28;20083;-75
2023/07/04 15:38:55;;;;;;;7.10;2.72;;;;;;;21.09;40.13;100072.66;10457829;28;20051;-75
2023/07/04 15:43:59;;;;;;;8.93;3.65;;;;;;;21.18;40.43;100063.25;10463091;28;20048;-75
2023/07/04 15:49:02;;;;;;;6.22;3.33;;;;;;;20.97;40.61;100068.75;10468455;28;20045;-75
2023/07/04 15:54:05;;;;;;;6.28;3.28;;;;;;;21.12;40.70;100057.75;10447754;28;20048;-74
2023/07/04 15:59:09;;;;;;;7.47;3.35;;;;;;;21.64;40.20;100062.63;10455498;28;20587;-74
2023/07/04 16:04:13;;;;;;;5.47;2.92;;;;;;;21.33;40.55;100065.00;10451084;28;20068;-73
2023/07/04 16:09:16;;;;;;;5.32;3.38;;;;;;;20.56;41.51;100064.88;10450312;28;20052;-74
2023/07/04 16:14:20;;;;;;;8.02;3.53;;;;;;;21.38;40.66;100051.56;10449116;28;20120;-74
2023/07/04 16:19:23;;;;;;;8.75;2.97;;;;;;;22.41;38.89;100048.72;10454519;28;20037;-74
2023/07/04 16:24:27;;;;;;;4.90;2.42;;;;;;;21.87;40.21;100045.06;10459529;28;20072;-74
2023/07/04 16:29:32;;;;;;;9.00;3.15;;;;;;;23.04;38.81;100046.34;10451982;28;20037;-75
2023/07/04 16:34:34;;;;;;;6.47;3.03;;;;;;;22.51;39.11;100035.44;10451566;28;20045;-75
2023/07/04 16:39:37;;;;;;;8.32;3.40;;;;;;;23.09;37.45;100029.25;10450917;28;20037;-75
2023/07/04 16:44:41;;;;;;;5.43;3.30;;;;;;;23.63;37.13;100026.09;10454534;28;20048;-75
2023/07/04 16:49:44;;;;;;;12.25;3.40;;;;;;;24.79;35.91;100032.25;10450176;28;20040;-75
2023/07/04 16:54:47;;;;;;;8.15;2.92;;;;;;;25.60;35.06;100031.13;10449847;28;20516;-75
2023/07/04 16:59:51;;;;;;;3.67;2.60;;;;;;;26.97;33.16;100029.41;10465721;28;20040;-75
2023/07/04 17:04:54;;;;;;;6.20;4.15;;;;;;;27.13;33.07;100028.66;10459663;28;20052;-75
2023/07/04 17:09:58;;;;;;;6.28;3.20;;;;;;;25.44;34.31;100020.75;10458290;28;20044;-76
2023/07/04 17:15:02;;;;;;;6.10;3.58;;;;;;;25.18;35.35;100028.25;10460506;28;20052;-75
2023/07/04 17:20:06;;;;;;;7.35;3.50;;;;;;;25.26;35.29;100026.25;10465056;28;20949;-75
2023/07/04 17:25:10;;;;;;;6.55;3.20;;;;;;;23.95;36.58;100026.16;10462424;28;20055;-74
2023/07/04 17:30:18;;;;;;;8.48;3.67;;;;;;;23.88;38.16;100022.63;10461588;28;20041;-75
2023/07/04 17:35:21;;;;;;;10.38;4.95;;;;;;;24.56;36.55;100015.59;10452303;28;20132;-75
2023/07/04 17:40:23;;;;;;;7.32;3.65;;;;;;;24.56;36.07;100019.16;10454999;28;20457;-74
2023/07/04 17:45:29;;;;;;;8.52;3.72;;;;;;;23.46;39.16;100022.19;10460709;28;20699;-73
2023/07/04 17:50:31;;;;;;;4.97;3.60;;;;;;;23.03;40.21;100019.16;10455890;28;20063;-73
2023/07/04 17:55:34;;;;;;;6.00;3.97;;;;;;;22.49;40.49;100016.53;10460147;28;20041;-74
2023/07/04 18:00:39;;;;;;;9.32;3.72;;;;;;;22.07;41.92;100026.78;10463228;28;20037;-74
2023/07/04 18:05:42;;;;;;;6.05;3.80;;;;;;;21.69;43.29;100026.47;10462455;28;20051;-74
2023/07/04 18:10:49;;;;;;;7.68;4.00;;;;;;;21.43;45.00;100027.22;10464822;28;20061;-75
2023/07/04 18:15:57;;;;;;;6.10;4.10;;;;;;;21.24;46.08;100017.91;10463430;28;20437;-75
2023/07/04 18:21:01;;;;;;;10.85;4.40;;;;;;;21.07;46.63;100017.41;10473900;28;20060;-75
2023/07/04 18:26:06;;;;;;;6.97;3.85;;;;;;;20.82;47.38;100019.75;10463501;28;20047;-75
2023/07/04 18:31:13;;;;;;;6.05;4.13;;;;;;;20.26;46.73;100019.69;10465020;28;20124;-75
2023/07/04 18:36:19;;;;;;;6.20;3.72;;;;;;;20.17;47.86;100012.72;10467764;28;20056;-76
2023/07/04 18:41:25;;;;;;;7.15;4.20;;;;;;;20.11;49.30;100015.19;10462114;28;20037;-75
2023/07/04 18:46:31;;;;;;;8.15;4.28;;;;;;;20.03;49.05;100015.31;10451656;28;20041;-75
2023/07/04 18:51:37;;;;;;;9.98;4.40;;;;;;;19.94;49.79;100008.31;10462062;28;20402;-76
2023/07/04 18:56:41;;;;;;;7.07;3.13;;;;;;;19.80;49.01;100009.19;10462386;28;20045;-76
2023/07/04 19:01:46;;;;;;;7.45;3.58;;;;;;;19.59;49.13;100018.22;10456682;28;20060;-75
2023/07/04 19:06:49;;;;;;;5.43;3.72;;;;;;;19.53;49.36;100008.03;10461508;28;20040;-76
2023/07/04 19:11:52;;;;;;;7.57;3.75;;;;;;;19.35;49.20;100006.59;10449782;28;20091;-73
2023/07/04 19:16:58;;;;;;;8.95;4.50;;;;;;;19.26;49.38;100013.19;10467989;28;20041;-76
2023/07/04 19:22:04;;;;;;;6.57;3.30;;;;;;;19.19;49.76;100004.06;10467335;28;20419;-77
2023/07/04 19:27:09;;;;;;;8.52;4.50;;;;;;;19.12;50.40;100005.88;10460231;28;20041;-75
2023/07/04 19:32:15;;;;;;;10.43;4.78;;;;;;;18.96;50.39;99991.44;10451630;28;20045;-76
2023/07/04 19:37:18;;;;;;;7.13;3.95;;;;;;;18.85;50.72;99993.78;10450463;28;20044;-76
2023/07/04 19:42:21;;;;;;;9.88;4.25;;;;;;;18.69;51.07;99998.34;10460048;28;20049;-75
2023/07/04 19:47:27;;;;;;;7.70;4.22;;;;;;;18.49;51.85;100003.47;10448123;28;20045;-75
2023/07/04 19:52:30;;;;;;;5.68;3.60;;;;;;;18.34;52.46;99999.88;10454926;28;20072;-75
2023/07/04 19:57:33;;;;;;;14.45;4.28;;;;;;;18.33;52.93;99988.16;10450052;28;20040;-76
2023/07/04 20:02:37;;;;;;;8.38;4.43;;;;;;;18.31;53.57;99992.09;10456492;28;20069;-75
2023/07/04 20:07:40;;;;;;;8.10;4.30;;;;;;;18.29;53.90;99983.28;10443818;28;20032;-75
2023/07/04 20:12:43;;;;;;;8.93;4.10;;;;;;;18.31;54.43;99984.78;10446173;28;20107;-76
2023/07/04 20:17:47;;;;;;;8.20;4.25;;;;;;;18.21;54.46;99984.22;10446141;28;20045;-76
2023/07/04 20:22:50;;;;;;;7.88;4.07;;;;;;;18.13;54.68;99981.56;10450587;28;20572;-77
2023/07/04 20:27:53;;;;;;;13.40;4.00;;;;;;;18.08;54.83;99976.69;10447777;28;20038;-75
2023/07/04 20:32:58;;;;;;;9.18;4.03;;;;;;;18.00;55.18;99974.03;10447053;28;20097;-75
2023/07/04 20:38:03;;;;;;;12.00;4.60;;;;;;;18.04;55.28;99955.47;10451436;28;20072;-74
2023/07/04 20:43:08;;;;;;;11.18;4.07;;;;;;;18.08;55.37;99945.94;10446600;28;20667;-76
2023/07/04 20:48:15;;;;;;;9.25;4.10;;;;;;;18.06;55.60;99946.13;10453277;28;20035;-75
2023/07/04 20:53:19;;;;;;;11.18;4.03;;;;;;;18.07;56.83;99936.94;10455808;28;20040;-74
2023/07/04 20:58:22;;;;;;;9.73;4.30;;;;;;;17.92;60.66;99917.84;10460006;28;20045;-75
2023/07/04 21:03:26;;;;;;;8.98;4.05;;;;;;;17.84;60.98;99923.34;10453786;28;20047;-75
2023/07/04 21:08:29;;;;;;;9.50;4.28;;;;;;;17.79;59.82;99919.50;10451383;28;20048;-75
2023/07/04 21:13:34;;;;;;;7.35;3.58;;;;;;;17.65;60.14;99921.13;10448692;28;20067;-74
2023/07/04 21:18:41;;;;;;;10.18;5.55;;;;;;;17.30;63.62;99901.69;10455353;28;20094;-74
2023/07/04 21:23:44;;;;;;;11.85;5.28;;;;;;;17.07;65.32;99904.38;10454598;28;20485;-75
2023/07/04 21:28:47;;;;;;;11.32;4.88;;;;;;;16.92;66.49;99898.84;10464074;28;20086;-75
2023/07/04 21:33:51;;;;;;;7.10;4.55;;;;;;;16.83;66.95;99897.19;10462951;28;20040;-74
2023/07/04 21:38:56;;;;;;;14.05;5.30;;;;;;;16.77;67.94;99900.63;10470935;28;20040;-75
2023/07/04 21:44:00;;;;;;;9.45;4.90;;;;;;;16.75;68.07;99895.34;10465022;28;20044;-75
2023/07/04 21:49:05;;;;;;;10.45;5.03;;;;;;;16.73;68.47;99894.72;10458626;28;20044;-74
2023/07/04 21:54:08;;;;;;;20.10;5.60;;;;;;;16.70;67.69;99899.63;10471351;28;20037;-73
2023/07/04 21:59:10;;;;;;;13.40;5.85;;;;;;;16.44;69.37;99889.91;10465714;28;20040;-75
2023/07/04 22:04:15;;;;;;;11.65;5.78;;;;;;;15.96;73.44;99888.94;10459914;28;20519;-74
2023/07/04 22:09:19;;;;;;;10.25;5.97;;;;;;;15.90;74.63;99871.53;10476232;28;20033;-74
2023/07/04 22:14:22;;;;;;;10.15;6.07;;;;;;;15.81;74.18;99864.44;10460330;28;20099;-74
2023/07/04 22:19:41;;;;;;;11.90;5.80;;;;;;;15.96;76.13;99852.91;10456718;28;20043;-74
2023/07/04 22:24:44;;;;;;;14.15;5.70;;;;;;;15.87;73.64;99831.25;10457374;28;20123;-74
2023/07/04 22:29:47;;;;;;;10.15;5.50;;;;;;;15.97;74.30;99822.94;10464922;28;20457;-74
2023/07/04 22:34:53;;;;;;;7.03;4.90;;;;;;;15.97;72.27;99817.53;10465885;28;20041;-75
2023/07/04 22:39:55;;;;;;;13.75;5.50;;;;;;;16.08;72.01;99806.31;10461103;28;20091;-75
2023/07/04 22:44:58;;;;;;;11.23;5.32;;;;;;;16.15;70.99;99801.91;10467651;28;20419;-74
2023/07/04 22:50:03;;;;;;;8.57;5.50;;;;;;;16.29;70.12;99797.66;10451371;28;20042;-74
2023/07/04 22:55:06;;;;;;;9.32;5.05;;;;;;;16.38;69.04;99798.44;10461000;28;20503;-74
2023/07/04 23:00:09;;;;;;;8.35;5.28;;;;;;;16.45;68.28;99775.03;10466718;28;20038;-73
2023/07/04 23:05:14;;;;;;;16.95;5.50;;;;;;;16.43;66.92;99779.81;10462480;28;20048;-75
2023/07/04 23:10:17;;;;;;;10.02;5.60;;;;;;;16.49;65.50;99773.66;10477963;28;20044;-74
2023/07/04 23:15:20;;;;;;;14.90;5.47;;;;;;;16.40;64.64;99768.44;10465289;28;20688;-75
2023/07/04 23:20:24;;;;;;;12.32;5.45;;;;;;;16.48;63.59;99763.84;10462652;28;20033;-74
2023/07/04 23:25:28;;;;;;;8.50;5.10;;;;;;;16.50;63.75;99742.81;10469392;28;20060;-74